Time;durP1;ratioP1;P1;durP2;ratioP2;P2;SDS_P1;SDS_P2;PMS_P1;PMS_P2;Temp;Humidity;BMP_temperature;BMP_pressure;BME280_temperature;BME280_humidity;BME280_pressure;Samples;Min_cycle;Max_cycle;Signal;HPM_P1;HPM_P2
2023/06/21 00:01:01;;;;;;;12.70;10.50;;;25.20;99.90;;;;;;6267164;22;20166;-67
2023/06/21 00:03:27;;;;;;;11.50;10.40;;;25.20;99.90;;;;;;6263304;22;20234;-67
2023/06/21 00:05:53;;;;;;;12.20;11.00;;;25.20;99.90;;;;;;6266195;22;20284;-67
2023/06/21 00:08:18;;;;;;;12.00;10.73;;;25.20;99.90;;;;;;6264888;22;20837;-68
2023/06/21 00:10:44;;;;;;;11.93;10.73;;;25.20;99.90;;;;;;6267051;22;20229;-68
2023/06/21 00:13:09;;;;;;;10.87;9.90;;;25.30;99.90;;;;;;6264508;22;20158;-67
2023/06/21 00:15:36;;;;;;;13.13;11.73;;;25.30;99.90;;;;;;6266546;22;20879;-67
2023/06/21 00:18:02;;;;;;;12.53;11.27;;;25.30;99.90;;;;;;6264830;22;20173;-67
2023/06/21 00:20:28;;;;;;;12.70;10.47;;;25.30;99.90;;;;;;6265887;22;20401;-67
2023/06/21 00:22:55;;;;;;;16.43;11.17;;;25.30;99.90;;;;;;6267448;22;20150;-67
2023/06/21 00:25:22;;;;;;;13.67;12.37;;;25.30;99.90;;;;;;6265933;22;20612;-67
2023/06/21 00:27:48;;;;;;;13.33;10.70;;;25.30;99.90;;;;;;6266032;22;20752;-67
2023/06/21 00:30:14;;;;;;;15.77;11.13;;;25.30;99.90;;;;;;6265255;22;20373;-67
2023/06/21 00:32:39;;;;;;;14.13;11.70;;;25.30;99.90;;;;;;6266531;22;20617;-67
2023/06/21 00:35:06;;;;;;;11.57;10.47;;;25.30;99.90;;;;;;6267118;22;20174;-68
2023/06/21 00:37:32;;;;;;;12.40;11.20;;;25.30;99.90;;;;;;6262141;22;20142;-67
2023/06/21 00:39:57;;;;;;;14.77;11.67;;;25.20;99.90;;;;;;6266567;22;20400;-67
2023/06/21 00:42:23;;;;;;;16.47;10.63;;;25.20;99.90;;;;;;6265020;22;20154;-67
2023/06/21 00:44:49;;;;;;;12.37;11.30;;;25.20;99.90;;;;;;6238914;22;20180;-67
2023/06/21 00:47:14;;;;;;;12.83;10.23;;;25.20;99.90;;;;;;6265123;22;20158;-67
2023/06/21 00:49:40;;;;;;;17.27;12.20;;;25.20;99.90;;;;;;6264979;22;20696;-67
2023/06/21 00:52:06;;;;;;;11.57;10.37;;;25.20;99.90;;;;;;6266796;22;20146;-67
2023/06/21 00:54:34;;;;;;;13.47;12.20;;;25.20;99.90;;;;;;6264892;22;20181;-67
2023/06/21 00:57:01;;;;;;;14.17;11.83;;;25.30;99.90;;;;;;6267210;22;20840;-67
2023/06/21 00:59:27;;;;;;;13.63;12.30;;;25.30;99.90;;;;;;6237157;22;20401;-67
2023/06/21 01:01:55;;;;;;;11.97;10.83;;;25.30;99.90;;;;;;6265551;22;20462;-67
2023/06/21 01:04:22;;;;;;;13.77;11.10;;;25.20;99.90;;;;;;6264939;22;20396;-67
2023/06/21 01:07:12;;;;;;;12.83;11.53;;;25.20;99.90;;;;;;6265417;22;20511;-67
2023/06/21 01:09:59;;;;;;;12.60;11.30;;;25.30;99.90;;;;;;6264739;22;20393;-67
2023/06/21 01:12:43;;;;;;;14.13;10.60;;;25.30;99.90;;;;;;6263573;22;20987;-67
2023/06/21 01:15:23;;;;;;;11.73;10.50;;;25.20;99.90;;;;;;6265947;22;20405;-67
2023/06/21 01:17:52;;;;;;;13.20;11.90;;;25.20;99.90;;;;;;6267778;22;20724;-67
2023/06/21 01:20:24;;;;;;;10.93;10.00;;;25.20;99.90;;;;;;6266566;22;20430;-67
2023/06/21 01:23:06;;;;;;;11.00;10.00;;;25.20;99.90;;;;;;6268615;22;20737;-68
2023/06/21 01:25:50;;;;;;;15.03;10.80;;;25.20;99.90;;;;;;6266977;22;20389;-67
2023/06/21 01:28:53;;;;;;;12.50;11.30;;;25.10;99.90;;;;;;6266664;22;20392;-67
2023/06/21 01:31:22;;;;;;;11.77;10.60;;;25.10;99.90;;;;;;6265540;22;20373;-67
2023/06/21 01:33:49;;;;;;;14.20;11.27;;;25.20;99.90;;;;;;6266946;22;20369;-67
2023/06/21 01:36:14;;;;;;;12.33;10.97;;;25.20;99.90;;;;;;6266758;22;20377;-67
2023/06/21 01:38:40;;;;;;;13.10;10.57;;;25.20;99.90;;;;;;6239823;22;20487;-67
2023/06/21 01:41:10;;;;;;;13.57;11.77;;;25.20;99.90;;;;;;6265354;22;20193;-67
2023/06/21 01:43:36;;;;;;;12.60;10.80;;;25.20;99.90;;;;;;6265913;22;20154;-67
2023/06/21 01:46:04;;;;;;;10.80;9.90;;;25.20;99.90;;;;;;6267671;22;20478;-67
2023/06/21 01:48:31;;;;;;;11.23;9.70;;;25.10;99.90;;;;;;6265492;22;20447;-67
2023/06/21 01:50:57;;;;;;;14.50;10.03;;;25.20;99.90;;;;;;6267384;22;20377;-67
2023/06/21 01:53:25;;;;;;;13.13;11.57;;;25.10;99.90;;;;;;6266687;22;20452;-67
2023/06/21 01:55:52;;;;;;;10.83;9.73;;;25.10;99.90;;;;;;6268174;22;20423;-66
2023/06/21 01:58:18;;;;;;;11.33;10.23;;;25.10;99.90;;;;;;6266462;22;20389;-66
2023/06/21 02:00:44;;;;;;;12.47;11.00;;;25.10;99.90;;;;;;6266297;22;20397;-67
2023/06/21 02:03:11;;;;;;;11.50;10.30;;;25.10;99.90;;;;;;6266572;22;20154;-66
2023/06/21 02:05:37;;;;;;;13.73;10.53;;;25.10;99.90;;;;;;6238037;22;20202;-67
2023/06/21 02:08:05;;;;;;;12.20;10.60;;;25.00;99.90;;;;;;6265246;22;20397;-67
2023/06/21 02:10:31;;;;;;;12.00;10.90;;;25.00;99.90;;;;;;6239759;22;20921;-67
2023/06/21 02:12:57;;;;;;;11.13;9.97;;;25.00;99.90;;;;;;6267965;22;20718;-67
2023/06/21 02:15:23;;;;;;;13.03;11.30;;;24.90;99.90;;;;;;6267191;22;20591;-67
2023/06/21 02:17:52;;;;;;;11.30;10.30;;;25.00;99.90;;;;;;6267352;22;20167;-67
2023/06/21 02:20:22;;;;;;;14.10;11.50;;;24.90;99.90;;;;;;6267351;22;20173;-66
2023/06/21 02:22:48;;;;;;;15.57;10.60;;;24.90;99.90;;;;;;6267579;22;20377;-67
2023/06/21 02:25:14;;;;;;;15.03;10.87;;;24.90;99.90;;;;;;6266525;22;20377;-67
2023/06/21 02:27:40;;;;;;;11.73;10.13;;;24.90;99.90;;;;;;6265655;22;20378;-67
2023/06/21 02:30:10;;;;;;;11.00;9.90;;;24.90;99.90;;;;;;6267182;22;20679;-66
2023/06/21 02:32:35;;;;;;;12.33;11.13;;;24.90;99.90;;;;;;6266499;22;20382;-67
2023/06/21 02:35:01;;;;;;;12.80;11.67;;;24.90;99.90;;;;;;6267619;22;20912;-67
2023/06/21 02:37:28;;;;;;;12.00;11.07;;;24.90;99.90;;;;;;6266868;22;20170;-67
2023/06/21 02:39:54;;;;;;;11.53;10.33;;;24.90;99.90;;;;;;6240388;22;20163;-67
2023/06/21 02:42:20;;;;;;;12.20;10.83;;;24.90;99.90;;;;;;6266144;22;20399;-67
2023/06/21 02:44:45;;;;;;;11.77;10.57;;;24.90;99.90;;;;;;6238314;22;20610;-67
2023/06/21 02:47:11;;;;;;;12.10;11.10;;;24.90;99.90;;;;;;6267206;22;20665;-67
2023/06/21 02:49:37;;;;;;;12.57;11.27;;;24.80;99.90;;;;;;6264621;22;20174;-67
2023/06/21 02:52:03;;;;;;;11.57;9.80;;;24.80;99.90;;;;;;6267541;22;20146;-67
2023/06/21 02:54:29;;;;;;;11.27;10.20;;;24.80;99.90;;;;;;6265568;22;20201;-67
2023/06/21 02:56:55;;;;;;;11.17;10.07;;;24.70;99.90;;;;;;6266856;22;20467;-67
2023/06/21 02:59:20;;;;;;;11.33;10.33;;;24.70;99.90;;;;;;6266192;22;20974;-67
2023/06/21 03:01:47;;;;;;;12.73;10.10;;;24.80;99.90;;;;;;6266253;22;20194;-66
2023/06/21 03:04:16;;;;;;;11.47;9.80;;;24.70;99.90;;;;;;6265435;22;20446;-66
2023/06/21 03:06:41;;;;;;;11.30;10.07;;;24.60;99.90;;;;;;6266402;22;20385;-66
2023/06/21 03:09:07;;;;;;;12.97;10.67;;;24.70;99.90;;;;;;6265519;22;20404;-66
2023/06/21 03:11:33;;;;;;;17.23;10.70;;;24.60;99.90;;;;;;6265856;22;20174;-66
2023/06/21 03:13:58;;;;;;;12.03;10.50;;;24.60;99.90;;;;;;6266975;22;20432;-66
2023/06/21 03:16:24;;;;;;;11.43;10.43;;;24.60;99.90;;;;;;6264036;22;20146;-67
2023/06/21 03:18:50;;;;;;;13.47;10.03;;;24.40;99.90;;;;;;6266868;22;20614;-66
2023/06/21 03:21:16;;;;;;;10.70;9.70;;;24.30;99.90;;;;;;6264671;22;20204;-66
2023/06/21 03:23:41;;;;;;;13.63;10.00;;;24.40;99.90;;;;;;6267684;22;20150;-66
2023/06/21 03:26:07;;;;;;;13.00;9.83;;;24.20;99.90;;;;;;6266678;22;20200;-66
2023/06/21 03:28:33;;;;;;;13.07;9.90;;;24.00;99.90;;;;;;6266694;22;20210;-67
2023/06/21 03:30:58;;;;;;;13.40;10.60;;;24.00;99.90;;;;;;6266909;22;20161;-67
2023/06/21 03:33:24;;;;;;;13.93;9.47;;;23.80;99.90;;;;;;6266156;22;20166;-67
2023/06/21 03:35:50;;;;;;;10.57;9.40;;;23.70;99.90;;;;;;6266282;22;20263;-67
2023/06/21 03:38:17;;;;;;;12.30;10.17;;;23.60;99.90;;;;;;6265926;22;20817;-67
2023/06/21 03:40:43;;;;;;;11.40;9.97;;;23.60;99.90;;;;;;6232912;22;20423;-67
2023/06/21 03:43:09;;;;;;;10.73;9.30;;;23.70;99.90;;;;;;6258990;22;20837;-67
2023/06/21 03:45:34;;;;;;;11.10;9.00;;;23.50;99.90;;;;;;6261378;22;20158;-67
2023/06/21 03:48:04;;;;;;;10.47;8.73;;;23.40;99.90;;;;;;6267047;22;20174;-67
2023/06/21 03:50:30;;;;;;;13.87;10.07;;;23.40;99.90;;;;;;6265202;22;20230;-67
2023/06/21 03:52:55;;;;;;;12.20;9.27;;;23.40;99.90;;;;;;6264606;22;20857;-66
2023/06/21 03:55:21;;;;;;;12.63;9.00;;;23.30;99.90;;;;;;6264659;22;20752;-67
2023/06/21 03:57:46;;;;;;;11.07;9.70;;;23.30;99.90;;;;;;6263206;22;20174;-67
2023/06/21 04:00:13;;;;;;;8.67;7.70;;;23.30;99.90;;;;;;6264665;22;20154;-68
2023/06/21 04:02:39;;;;;;;9.23;8.30;;;23.30;99.90;;;;;;6266046;22;20131;-67
2023/06/21 04:05:05;;;;;;;10.33;9.20;;;23.20;99.90;;;;;;6263413;22;20392;-67
2023/06/21 04:07:31;;;;;;;12.93;9.73;;;23.10;99.90;;;;;;6264172;22;20179;-67
2023/06/21 04:09:56;;;;;;;12.87;10.00;;;22.90;99.90;;;;;;6265215;22;20385;-67
2023/06/21 04:12:22;;;;;;;13.10;10.90;;;22.70;99.90;;;;;;6266368;22;20150;-67
2023/06/21 04:14:47;;;;;;;12.20;10.67;;;22.60;99.90;;;;;;6266366;22;20224;-67
2023/06/21 04:17:13;;;;;;;11.50;10.30;;;22.60;99.90;;;;;;6266453;22;20150;-67
2023/06/21 04:19:39;;;;;;;13.57;10.30;;;22.60;99.90;;;;;;6266103;22;20174;-67
2023/06/21 04:22:05;;;;;;;10.83;9.83;;;22.60;99.90;;;;;;6240245;22;20677;-67
2023/06/21 04:24:31;;;;;;;10.20;8.93;;;22.60;99.90;;;;;;6265986;22;20578;-67
2023/06/21 04:26:58;;;;;;;13.30;9.83;;;22.60;99.90;;;;;;6268311;22;20365;-67
2023/06/21 04:29:24;;;;;;;12.20;9.37;;;22.60;99.90;;;;;;6267314;22;20397;-67
2023/06/21 04:31:52;;;;;;;15.47;10.17;;;22.50;99.90;;;;;;6266446;22;20408;-67
2023/06/21 04:34:18;;;;;;;14.77;9.30;;;22.50;99.90;;;;;;6264431;22;20463;-67
2023/06/21 04:36:47;;;;;;;12.00;9.67;;;22.40;99.90;;;;;;6266013;22;20366;-67
2023/06/21 04:39:16;;;;;;;9.83;8.83;;;22.60;99.90;;;;;;6265154;22;20492;-67
2023/06/21 04:41:42;;;;;;;10.90;9.80;;;22.60;99.90;;;;;;6266746;22;21052;-67
2023/06/21 04:44:07;;;;;;;15.43;10.33;;;22.60;99.90;;;;;;6266598;22;20403;-67
2023/06/21 04:46:35;;;;;;;16.27;11.43;;;22.60;99.90;;;;;;6267577;22;20464;-67
2023/06/21 04:49:04;;;;;;;11.50;10.13;;;22.60;99.90;;;;;;6267036;22;20782;-67
2023/06/21 04:51:30;;;;;;;13.43;10.03;;;22.50;99.90;;;;;;6265620;22;20374;-67
2023/06/21 04:53:58;;;;;;;10.10;8.80;;;22.50;99.90;;;;;;6265121;22;20427;-67
2023/06/21 04:56:25;;;;;;;10.30;9.27;;;22.50;99.90;;;;;;6267161;22;20716;-67
2023/06/21 04:58:51;;;;;;;14.93;9.70;;;22.40;99.90;;;;;;6265764;22;20711;-67
2023/06/21 05:01:16;;;;;;;13.23;9.10;;;22.60;99.90;;;;;;6263915;22;20389;-67
2023/06/21 05:03:47;;;;;;;11.10;9.60;;;22.70;99.90;;;;;;6266242;22;20173;-67
2023/06/21 05:06:17;;;;;;;11.10;8.87;;;22.80;99.90;;;;;;6266523;22;20127;-67
2023/06/21 05:08:42;;;;;;;10.83;9.00;;;22.70;99.90;;;;;;6265779;22;20488;-67
2023/06/21 05:11:08;;;;;;;12.30;8.93;;;22.80;99.90;;;;;;6266539;22;20780;-67
2023/06/21 05:13:34;;;;;;;13.03;8.37;;;22.80;99.90;;;;;;6266112;22;20153;-67
2023/06/21 05:16:00;;;;;;;19.73;10.07;;;22.70;99.90;;;;;;6266775;22;20606;-68
2023/06/21 05:18:25;;;;;;;12.43;9.87;;;22.70;99.90;;;;;;6266372;22;20626;-67
2023/06/21 05:20:51;;;;;;;13.40;9.10;;;22.80;99.90;;;;;;6266094;22;20237;-66
2023/06/21 05:23:17;;;;;;;14.70;8.80;;;22.70;99.90;;;;;;6266178;22;20152;-68
2023/06/21 05:25:42;;;;;;;11.23;8.90;;;22.50;99.90;;;;;;6266376;22;20625;-67
2023/06/21 05:28:08;;;;;;;13.80;10.57;;;22.60;99.90;;;;;;6266366;22;20186;-67
2023/06/21 05:30:33;;;;;;;12.93;9.67;;;22.80;99.90;;;;;;6262758;22;20613;-67
2023/06/21 05:32:59;;;;;;;14.13;8.43;;;22.90;99.90;;;;;;6266765;22;20159;-67
2023/06/21 05:35:24;;;;;;;10.97;8.20;;;22.90;99.90;;;;;;6265954;22;20174;-68
2023/06/21 05:37:52;;;;;;;11.43;8.50;;;23.10;99.90;;;;;;6266041;22;20194;-68
2023/06/21 05:40:19;;;;;;;15.33;8.70;;;23.20;99.90;;;;;;6264284;22;20212;-68
2023/06/21 05:42:44;;;;;;;12.20;7.90;;;23.30;99.90;;;;;;6238740;22;20380;-67
2023/06/21 05:45:10;;;;;;;9.23;8.00;;;23.50;99.90;;;;;;6265516;22;20381;-68
2023/06/21 05:47:36;;;;;;;18.27;8.70;;;23.60;99.90;;;;;;6265449;22;20178;-68
2023/06/21 05:50:02;;;;;;;12.57;7.00;;;23.50;99.90;;;;;;6265101;22;20229;-68
2023/06/21 05:52:28;;;;;;;9.23;7.70;;;23.40;99.90;;;;;;6266230;22;20743;-68
2023/06/21 05:54:54;;;;;;;12.20;8.50;;;23.40;99.90;;;;;;6265161;22;20510;-68
2023/06/21 05:57:20;;;;;;;10.20;7.53;;;23.60;99.90;;;;;;6239551;22;20385;-68
2023/06/21 05:59:45;;;;;;;12.83;7.60;;;23.70;99.90;;;;;;6264026;22;20170;-68
2023/06/21 06:02:11;;;;;;;10.77;7.90;;;23.70;99.90;;;;;;6268000;22;20547;-67
2023/06/21 06:04:37;;;;;;;9.00;7.50;;;23.50;99.90;;;;;;6260888;22;20150;-68
2023/06/21 06:07:03;;;;;;;13.50;10.73;;;23.50;99.90;;;;;;6266340;22;20151;-68
2023/06/21 06:09:29;;;;;;;13.30;9.90;;;23.40;99.90;;;;;;6264137;22;20404;-67
2023/06/21 06:11:56;;;;;;;9.77;8.80;;;23.50;99.90;;;;;;6263577;22;20374;-68
2023/06/21 06:14:22;;;;;;;14.40;7.73;;;23.60;99.90;;;;;;6267508;22;20444;-68
2023/06/21 06:16:48;;;;;;;10.27;9.13;;;23.80;99.90;;;;;;6267821;22;20405;-68
2023/06/21 06:19:13;;;;;;;10.93;8.63;;;23.80;99.90;;;;;;6267175;22;20397;-68
2023/06/21 06:21:39;;;;;;;11.63;8.47;;;23.60;99.90;;;;;;6265522;22;20151;-68
2023/06/21 06:24:04;;;;;;;11.37;9.27;;;23.70;99.90;;;;;;6267638;22;20178;-67
2023/06/21 06:26:30;;;;;;;11.77;9.27;;;23.70;99.90;;;;;;6265751;22;20162;-68
2023/06/21 06:28:56;;;;;;;9.80;8.80;;;23.70;99.90;;;;;;6233047;22;20772;-67
2023/06/21 06:31:24;;;;;;;12.60;9.30;;;23.80;99.90;;;;;;6266346;22;20147;-67
2023/06/21 06:33:49;;;;;;;8.93;8.10;;;23.90;99.90;;;;;;6263309;22;20150;-67
2023/06/21 06:36:15;;;;;;;14.53;7.83;;;23.90;99.90;;;;;;6232804;22;20391;-67
2023/06/21 06:38:41;;;;;;;10.50;8.77;;;23.90;99.90;;;;;;6260228;22;20393;-67
2023/06/21 06:41:07;;;;;;;8.80;7.90;;;23.90;99.90;;;;;;6262216;22;20147;-67
2023/06/21 06:43:33;;;;;;;9.50;8.50;;;24.00;99.90;;;;;;6266888;22;20158;-67
2023/06/21 06:45:58;;;;;;;10.70;7.43;;;24.00;99.90;;;;;;6265392;22;20208;-67
2023/06/21 06:48:26;;;;;;;13.73;8.27;;;23.90;99.90;;;;;;6266697;22;20393;-67
2023/06/21 06:50:51;;;;;;;10.27;7.60;;;24.00;99.90;;;;;;6266442;22;20158;-67
2023/06/21 06:53:17;;;;;;;10.73;6.63;;;24.10;99.90;;;;;;6267327;22;20377;-67
2023/06/21 06:55:42;;;;;;;11.43;6.93;;;24.00;99.90;;;;;;6266469;22;20185;-67
2023/06/21 06:58:08;;;;;;;8.10;7.13;;;24.00;99.90;;;;;;6267723;22;20306;-67
2023/06/21 07:00:33;;;;;;;11.13;8.70;;;23.90;99.90;;;;;;6265597;22;20167;-67
2023/06/21 07:02:59;;;;;;;9.13;7.17;;;23.90;99.90;;;;;;6267321;22;20489;-67
2023/06/21 07:05:25;;;;;;;8.30;6.50;;;24.00;99.90;;;;;;6266306;22;20155;-67
2023/06/21 07:07:52;;;;;;;9.43;7.70;;;24.00;99.90;;;;;;6266439;22;20171;-67
2023/06/21 07:10:18;;;;;;;7.50;6.40;;;24.10;99.90;;;;;;6265391;22;20405;-67
2023/06/21 07:12:44;;;;;;;9.07;8.17;;;24.10;99.90;;;;;;6266495;22;20435;-67
2023/06/21 07:15:09;;;;;;;11.00;7.00;;;24.20;99.90;;;;;;6267398;22;20417;-67
2023/06/21 07:17:35;;;;;;;9.50;7.00;;;24.50;99.90;;;;;;6265157;22;20226;-67
2023/06/21 07:20:01;;;;;;;9.10;7.10;;;24.50;99.90;;;;;;6263033;22;20147;-67
2023/06/21 07:22:26;;;;;;;10.73;8.37;;;24.40;99.90;;;;;;6262941;22;20146;-67
2023/06/21 07:24:52;;;;;;;10.50;7.70;;;24.40;99.90;;;;;;6266313;22;20162;-67
2023/06/21 07:27:17;;;;;;;8.27;7.27;;;24.50;99.90;;;;;;6267834;22;20208;-67
2023/06/21 07:29:43;;;;;;;7.77;6.87;;;24.50;99.90;;;;;;6265557;22;20178;-66
2023/06/21 07:32:09;;;;;;;11.30;8.73;;;24.40;99.90;;;;;;6265915;22;20151;-66
2023/06/21 07:34:35;;;;;;;15.47;8.27;;;24.50;99.90;;;;;;6265890;22;20444;-66
2023/06/21 07:37:00;;;;;;;12.10;9.20;;;24.50;99.90;;;;;;6260483;22;20150;-67
2023/06/21 07:39:26;;;;;;;11.20;10.10;;;24.60;99.90;;;;;;6263858;22;20227;-67
2023/06/21 07:41:51;;;;;;;8.00;7.03;;;24.60;99.90;;;;;;6266950;22;20592;-67
2023/06/21 07:44:20;;;;;;;9.87;7.17;;;24.50;99.90;;;;;;6266561;22;20194;-67
2023/06/21 07:46:51;;;;;;;8.90;8.00;;;24.60;99.90;;;;;;6266400;22;20147;-67
2023/06/21 07:49:17;;;;;;;10.20;7.77;;;24.50;99.90;;;;;;6265327;22;20479;-67
2023/06/21 07:51:43;;;;;;;9.03;8.10;;;24.50;99.90;;;;;;6266064;22;20373;-67
2023/06/21 07:54:08;;;;;;;10.53;8.13;;;24.50;99.90;;;;;;6267388;22;20427;-69
2023/06/21 07:56:34;;;;;;;8.77;7.87;;;24.60;99.90;;;;;;6264783;22;20668;-68
2023/06/21 07:58:59;;;;;;;12.90;8.30;;;24.50;99.90;;;;;;6262645;22;20166;-69
2023/06/21 08:01:25;;;;;;;13.00;8.83;;;24.50;99.90;;;;;;6265428;22;20640;-69
2023/06/21 08:03:50;;;;;;;10.67;8.53;;;24.70;99.90;;;;;;6265368;22;20210;-70
2023/06/21 08:06:16;;;;;;;8.20;7.40;;;24.70;99.90;;;;;;6262438;22;20155;-70
2023/06/21 08:08:41;;;;;;;8.97;8.07;;;24.80;99.90;;;;;;6266652;22;20174;-70
2023/06/21 08:11:08;;;;;;;9.77;8.77;;;24.90;99.90;;;;;;6266224;22;20186;-69
2023/06/21 08:13:33;;;;;;;12.17;8.77;;;24.80;99.90;;;;;;6266945;22;20197;-70
2023/06/21 08:15:59;;;;;;;9.40;8.10;;;24.80;99.90;;;;;;6265626;22;20416;-71
2023/06/21 08:18:24;;;;;;;12.40;8.40;;;24.80;99.90;;;;;;6266050;22;20166;-70
2023/06/21 08:20:50;;;;;;;12.37;8.23;;;24.70;99.90;;;;;;6266453;22;20582;-69
2023/06/21 08:23:15;;;;;;;9.33;8.37;;;24.80;99.90;;;;;;6265602;22;20586;-69
2023/06/21 08:25:41;;;;;;;9.30;7.70;;;24.70;99.90;;;;;;6265506;22;20157;-70
2023/06/21 08:28:06;;;;;;;8.90;8.00;;;24.60;99.90;;;;;;6264685;22;20245;-69
2023/06/21 08:30:32;;;;;;;8.80;7.47;;;24.50;99.90;;;;;;6266938;22;20154;-70
2023/06/21 08:32:58;;;;;;;10.50;8.40;;;24.60;99.90;;;;;;6265749;22;20181;-69
2023/06/21 08:35:23;;;;;;;16.50;8.57;;;24.60;99.90;;;;;;6265824;22;20179;-70
2023/06/21 08:37:56;;;;;;;9.67;8.50;;;24.60;99.90;;;;;;6265880;22;20167;-70
2023/06/21 08:40:27;;;;;;;12.87;9.40;;;24.50;99.90;;;;;;6265782;22;20157;-69
2023/06/21 08:42:56;;;;;;;10.80;8.17;;;24.50;99.90;;;;;;6266391;22;20349;-70
2023/06/21 08:45:22;;;;;;;9.23;8.20;;;24.70;99.90;;;;;;6265262;22;20868;-69
2023/06/21 08:47:49;;;;;;;14.53;9.33;;;24.80;99.90;;;;;;6236847;22;20409;-70
2023/06/21 08:50:16;;;;;;;11.63;9.30;;;24.80;99.90;;;;;;6261277;22;20156;-70
2023/06/21 08:52:45;;;;;;;9.47;8.40;;;24.90;99.90;;;;;;6266155;22;20707;-69
2023/06/21 08:55:14;;;;;;;9.23;8.33;;;25.00;99.90;;;;;;6265777;22;20417;-69
2023/06/21 08:57:54;;;;;;;9.10;7.50;;;25.10;99.90;;;;;;6265386;22;20460;-69
2023/06/21 09:00:22;;;;;;;9.40;7.20;;;25.10;99.90;;;;;;6237929;22;20404;-69
2023/06/21 09:03:08;;;;;;;9.20;8.07;;;25.10;99.90;;;;;;6264577;22;20380;-69
2023/06/21 09:05:46;;;;;;;9.73;7.33;;;25.10;99.90;;;;;;6264528;22;20414;-69
2023/06/21 09:08:12;;;;;;;8.87;7.87;;;25.00;99.90;;;;;;6265263;22;20772;-69
2023/06/21 09:10:40;;;;;;;10.33;7.17;;;25.00;99.90;;;;;;6266362;22;21262;-69
2023/06/21 09:13:06;;;;;;;8.40;6.63;;;25.10;99.90;;;;;;6264276;22;20377;-68
2023/06/21 09:15:32;;;;;;;7.73;6.83;;;25.00;99.90;;;;;;6265715;22;20745;-69
2023/06/21 09:17:58;;;;;;;10.53;7.00;;;25.20;99.90;;;;;;6264300;22;20397;-70
2023/06/21 09:20:28;;;;;;;8.47;7.13;;;25.30;99.90;;;;;;6265190;22;20845;-70
2023/06/21 09:22:57;;;;;;;10.30;6.53;;;25.30;99.90;;;;;;6264351;22;20150;-70
2023/06/21 09:25:22;;;;;;;12.13;7.17;;;25.20;99.90;;;;;;6265895;22;20488;-69
2023/06/21 09:27:48;;;;;;;10.10;6.60;;;25.20;99.90;;;;;;6263776;22;20420;-69
2023/06/21 09:30:14;;;;;;;8.10;6.93;;;25.20;99.90;;;;;;6266250;22;20236;-69
2023/06/21 09:32:40;;;;;;;8.07;7.13;;;25.20;99.90;;;;;;6236302;22;20177;-70
2023/06/21 09:35:06;;;;;;;8.07;7.27;;;25.20;99.90;;;;;;6265848;22;20889;-70
2023/06/21 09:37:38;;;;;;;7.17;6.43;;;25.30;99.90;;;;;;6266310;22;20161;-69
2023/06/21 09:40:04;;;;;;;8.73;7.93;;;25.30;99.90;;;;;;6266850;22;20411;-70
2023/06/21 09:42:30;;;;;;;7.20;6.50;;;25.30;99.90;;;;;;6267031;22;20365;-69
2023/06/21 09:44:56;;;;;;;8.77;7.60;;;25.30;99.90;;;;;;6267821;22;20381;-70
2023/06/21 09:47:22;;;;;;;11.10;7.73;;;25.30;99.90;;;;;;6265911;22;20664;-70
2023/06/21 09:49:48;;;;;;;9.30;7.80;;;25.30;99.90;;;;;;6268140;22;20175;-67
2023/06/21 09:52:17;;;;;;;9.30;8.40;;;25.20;99.90;;;;;;6267803;22;20385;-69
2023/06/21 09:54:43;;;;;;;9.17;8.17;;;25.10;99.90;;;;;;6267204;22;20440;-70
2023/06/21 09:57:08;;;;;;;10.00;9.00;;;25.00;99.90;;;;;;6265505;22;21339;-70
2023/06/21 09:59:38;;;;;;;8.77;7.97;;;25.00;99.90;;;;;;6268174;22;20413;-68
2023/06/21 10:02:07;;;;;;;8.80;7.90;;;25.00;99.90;;;;;;6266545;22;20242;-68
2023/06/21 10:04:43;;;;;;;10.43;8.70;;;25.00;99.90;;;;;;6267778;22;20389;-68
2023/06/21 10:07:12;;;;;;;10.03;8.47;;;25.00;99.90;;;;;;6266872;22;20951;-68
2023/06/21 10:09:38;;;;;;;9.27;8.37;;;25.00;99.90;;;;;;6267342;22;20398;-69
2023/06/21 10:12:05;;;;;;;9.60;8.60;;;25.10;99.90;;;;;;6266079;22;20384;-68
2023/06/21 10:14:31;;;;;;;11.03;9.07;;;25.20;99.90;;;;;;6266729;22;20517;-68
2023/06/21 10:16:58;;;;;;;10.43;9.43;;;25.20;99.90;;;;;;6268162;22;20374;-69
2023/06/21 10:19:25;;;;;;;11.30;8.57;;;25.10;99.90;;;;;;6266920;22;20397;-69
2023/06/21 10:22:04;;;;;;;9.70;8.70;;;25.20;99.90;;;;;;6267190;22;20726;-68
2023/06/21 10:24:38;;;;;;;13.30;8.70;;;25.30;99.90;;;;;;6266588;22;20442;-68
2023/06/21 10:27:06;;;;;;;11.17;10.07;;;25.30;99.90;;;;;;6266057;22;20364;-68
2023/06/21 10:29:33;;;;;;;9.60;8.60;;;25.40;99.90;;;;;;6266802;22;20465;-69
2023/06/21 10:32:04;;;;;;;10.50;9.40;;;25.50;99.90;;;;;;6265856;22;20405;-69
2023/06/21 10:34:55;;;;;;;9.77;8.87;;;25.40;99.90;;;;;;6267010;22;20408;-69
2023/06/21 10:37:37;;;;;;;12.60;9.50;;;25.40;99.90;;;;;;6266331;22;20358;-68
2023/06/21 10:40:06;;;;;;;11.97;9.63;;;25.60;99.90;;;;;;6266118;22;20364;-68
2023/06/21 10:42:32;;;;;;;12.27;9.53;;;25.60;99.90;;;;;;6264779;22;20373;-68
2023/06/21 10:44:59;;;;;;;12.30;11.10;;;25.70;99.90;;;;;;6265505;22;20376;-69
2023/06/21 10:47:25;;;;;;;11.03;9.93;;;25.70;99.90;;;;;;6266936;22;20374;-69
2023/06/21 10:49:58;;;;;;;13.73;12.03;;;25.80;99.90;;;;;;6268697;22;20465;-68
2023/06/21 10:52:26;;;;;;;13.53;12.13;;;25.90;99.90;;;;;;6266550;22;20711;-68
2023/06/21 10:54:55;;;;;;;13.10;11.63;;;25.90;99.90;;;;;;6267428;22;20748;-68
2023/06/21 10:57:22;;;;;;;11.60;10.50;;;26.00;99.90;;;;;;6267303;22;20373;-68
2023/06/21 10:59:48;;;;;;;12.53;11.30;;;25.90;99.90;;;;;;6265684;22;20747;-68
2023/06/21 11:02:13;;;;;;;12.73;11.53;;;26.00;99.90;;;;;;6266689;22;20389;-69
2023/06/21 11:05:24;;;;;;;13.00;11.80;;;26.00;99.90;;;;;;6239659;22;20158;-68
2023/06/21 11:07:57;;;;;;;12.33;11.13;;;25.90;99.90;;;;;;6260798;22;20192;-69
2023/06/21 11:10:29;;;;;;;12.43;11.23;;;26.20;99.90;;;;;;6265562;22;20656;-68
2023/06/21 11:12:58;;;;;;;14.00;12.60;;;26.20;99.90;;;;;;6262029;22;20369;-68
2023/06/21 11:15:25;;;;;;;12.77;11.47;;;26.30;99.90;;;;;;6263117;22;20417;-67
2023/06/21 11:18:00;;;;;;;12.57;10.90;;;26.20;99.90;;;;;;6261537;22;20419;-68
2023/06/21 11:20:26;;;;;;;12.80;11.50;;;26.20;99.90;;;;;;6266546;22;20373;-67
2023/06/21 11:23:09;;;;;;;15.63;10.33;;;26.40;99.90;;;;;;6265847;22;20434;-67
2023/06/21 11:25:38;;;;;;;13.13;11.83;;;26.50;99.90;;;;;;6266231;22;20177;-68
2023/06/21 11:28:26;;;;;;;12.10;10.90;;;26.60;99.90;;;;;;6264933;22;20457;-67
2023/06/21 11:31:06;;;;;;;10.57;9.47;;;26.70;99.90;;;;;;6266936;22;20358;-67
2023/06/21 11:33:49;;;;;;;9.37;8.40;;;26.90;99.90;;;;;;6264081;22;20849;-67
2023/06/21 11:36:17;;;;;;;10.67;9.63;;;26.90;99.90;;;;;;6235788;22;20989;-67
2023/06/21 11:39:05;;;;;;;12.37;10.20;;;27.00;99.90;;;;;;6261314;22;20394;-67
2023/06/21 11:41:51;;;;;;;11.53;10.40;;;27.20;99.90;;;;;;6267521;22;20768;-67
2023/06/21 11:44:37;;;;;;;10.47;9.23;;;27.10;99.90;;;;;;6244245;22;20446;-68
2023/06/21 11:47:04;;;;;;;10.27;9.30;;;27.30;99.90;;;;;;6266523;22;20350;-68
2023/06/21 11:49:33;;;;;;;8.30;7.60;;;27.50;99.90;;;;;;6264122;22;20404;-68
2023/06/21 11:52:04;;;;;;;8.07;7.27;;;27.60;99.90;;;;;;6266898;22;20766;-68
2023/06/21 11:54:31;;;;;;;8.53;7.83;;;27.70;99.90;;;;;;6266571;22;20506;-67
2023/06/21 11:56:57;;;;;;;9.60;7.90;;;27.80;99.90;;;;;;6263370;22;20468;-68
2023/06/21 11:59:27;;;;;;;9.20;7.70;;;27.80;99.90;;;;;;6264060;22;20496;-67
2023/06/21 12:01:53;;;;;;;8.97;8.07;;;27.80;99.90;;;;;;6264734;22;20174;-68
2023/06/21 12:04:27;;;;;;;7.63;6.87;;;27.60;99.90;;;;;;6266394;22;20374;-69
2023/06/21 12:06:55;;;;;;;7.90;7.20;;;28.00;99.90;;;;;;6238635;22;20375;-68
2023/06/21 12:09:21;;;;;;;7.03;6.37;;;29.10;99.90;;;;;;6261892;22;20401;-69
2023/06/21 12:11:50;;;;;;;6.23;5.70;;;30.10;99.90;;;;;;6264285;22;20384;-69
2023/06/21 12:14:16;;;;;;;9.77;7.30;;;31.10;99.90;;;;;;6266338;22;20464;-70
2023/06/21 12:16:42;;;;;;;7.07;6.47;;;31.70;99.90;;;;;;6263508;22;20378;-69
2023/06/21 12:19:11;;;;;;;7.87;7.10;;;31.90;99.90;;;;;;6265075;22;20176;-69
2023/06/21 12:21:39;;;;;;;7.57;6.60;;;31.90;99.90;;;;;;6265031;22;20365;-69
2023/06/21 12:24:05;;;;;;;9.83;6.80;;;32.10;99.90;;;;;;6266827;22;20397;-69
2023/06/21 12:26:30;;;;;;;7.13;6.50;;;32.00;99.90;;;;;;6267025;22;20400;-70
2023/06/21 12:28:56;;;;;;;6.53;5.93;;;32.30;99.90;;;;;;6263960;22;20401;-69
2023/06/21 12:31:25;;;;;;;6.13;5.50;;;32.10;98.40;;;;;;6266410;22;20150;-69
2023/06/21 12:33:56;;;;;;;7.07;6.37;;;32.20;97.20;;;;;;6266942;22;20486;-69
2023/06/21 12:36:28;;;;;;;8.10;5.60;;;31.60;97.80;;;;;;6265945;22;20801;-69
2023/06/21 12:39:00;;;;;;;4.73;4.33;;;31.80;97.10;;;;;;6266074;22;20392;-69